Time;durP1;ratioP1;P1;durP2;ratioP2;P2;SDS_P1;SDS_P2;PMS_P1;PMS_P2;Temp;Humidity;BMP_temperature;BMP_pressure;BME280_temperature;BME280_humidity;BME280_pressure;Samples;Min_cycle;Max_cycle;Signal;HPM_P1;HPM_P2
2020/12/18 00:01:55;;;;;;;7.32;4.68;;;;;;;;;;5115997;28;20028;-20
2020/12/18 00:04:20;;;;;;;8.50;5.00;;;;;;;;;;5115974;28;20034;-19
2020/12/18 00:06:46;;;;;;;6.18;4.40;;;;;;;;;;5116009;28;20037;-19
2020/12/18 00:09:11;;;;;;;8.82;4.63;;;;;;;;;;5115748;28;20031;-20
2020/12/18 00:11:37;;;;;;;6.93;4.22;;;;;;;;;;5114606;28;20094;-19
2020/12/18 00:14:02;;;;;;;7.47;5.13;;;;;;;;;;5115636;28;20020;-18
2020/12/18 00:16:28;;;;;;;7.38;4.53;;;;;;;;;;5115771;28;20031;-19
2020/12/18 00:18:54;;;;;;;6.28;4.65;;;;;;;;;;5115547;28;20020;-19
2020/12/18 00:21:20;;;;;;;5.13;3.47;;;;;;;;;;5115614;28;20160;-19
2020/12/18 00:23:45;;;;;;;7.15;4.40;;;;;;;;;;5114305;28;20110;-18
2020/12/18 00:26:11;;;;;;;6.88;4.95;;;;;;;;;;5115661;28;20422;-19
2020/12/18 00:28:36;;;;;;;7.22;5.05;;;;;;;;;;5115401;28;20032;-18
2020/12/18 00:31:02;;;;;;;7.10;4.97;;;;;;;;;;5115371;28;20022;-18
2020/12/18 00:33:27;;;;;;;7.63;5.07;;;;;;;;;;5114525;28;20065;-19
2020/12/18 00:35:52;;;;;;;5.32;3.90;;;;;;;;;;5115237;28;20106;-19
2020/12/18 00:38:18;;;;;;;8.02;4.50;;;;;;;;;;5115277;28;20035;-19
2020/12/18 00:40:45;;;;;;;6.70;4.40;;;;;;;;;;5115251;28;20023;-19
2020/12/18 00:43:10;;;;;;;9.30;5.50;;;;;;;;;;5113818;28;20023;-19
2020/12/18 00:45:36;;;;;;;6.38;4.45;;;;;;;;;;5113810;28;20118;-18
2020/12/18 00:48:01;;;;;;;8.05;4.72;;;;;;;;;;5115356;28;20102;-19
2020/12/18 00:50:27;;;;;;;6.95;4.65;;;;;;;;;;5114839;27;20052;-19
2020/12/18 00:52:52;;;;;;;8.43;4.45;;;;;;;;;;5115391;28;20023;-20
2020/12/18 00:55:18;;;;;;;7.38;4.60;;;;;;;;;;5113559;28;20115;-19
2020/12/18 00:57:43;;;;;;;5.85;4.45;;;;;;;;;;5113650;28;20019;-19
2020/12/18 01:00:09;;;;;;;8.65;5.22;;;;;;;;;;5115062;28;20098;-19
2020/12/18 01:02:54;;;;;;;6.28;4.95;;;;;;;;;;5114617;28;20097;-19
2020/12/18 01:05:20;;;;;;;7.00;5.18;;;;;;;;;;5113494;28;20035;-19
2020/12/18 01:07:45;;;;;;;8.98;5.07;;;;;;;;;;5113380;28;20023;-19
2020/12/18 01:10:12;;;;;;;5.80;4.40;;;;;;;;;;5113241;28;20032;-19
2020/12/18 01:12:38;;;;;;;8.23;4.85;;;;;;;;;;5113369;28;20027;-19
2020/12/18 01:15:03;;;;;;;6.57;4.05;;;;;;;;;;5113212;28;20028;-19
2020/12/18 01:17:29;;;;;;;6.88;4.55;;;;;;;;;;5113333;28;20165;-19
2020/12/18 01:19:57;;;;;;;7.35;4.55;;;;;;;;;;5114403;27;20490;-19
2020/12/18 01:22:22;;;;;;;7.25;5.00;;;;;;;;;;5113272;28;20016;-20
2020/12/18 01:24:48;;;;;;;5.45;4.07;;;;;;;;;;5112974;28;20114;-19
2020/12/18 01:27:15;;;;;;;6.00;4.55;;;;;;;;;;5112938;28;20043;-20
2020/12/18 01:29:40;;;;;;;5.47;3.75;;;;;;;;;;5114282;28;20390;-19
2020/12/18 01:32:09;;;;;;;9.52;5.45;;;;;;;;;;5112810;28;20019;-20
2020/12/18 01:34:35;;;;;;;8.45;4.90;;;;;;;;;;5112964;28;20027;-19
2020/12/18 01:37:01;;;;;;;7.32;4.50;;;;;;;;;;5112725;28;20027;-20
2020/12/18 01:39:40;;;;;;;7.05;4.05;;;;;;;;;;5112801;28;20122;-19
2020/12/18 01:42:06;;;;;;;8.32;5.53;;;;;;;;;;5112594;28;20136;-20
2020/12/18 01:44:31;;;;;;;6.13;4.03;;;;;;;;;;5112637;28;20019;-19
2020/12/18 01:47:00;;;;;;;9.15;4.25;;;;;;;;;;5095858;28;20629;-18
2020/12/18 01:49:26;;;;;;;7.38;4.72;;;;;;;;;;5112388;28;20039;-18
2020/12/18 01:51:53;;;;;;;6.82;4.03;;;;;;;;;;5112635;28;20023;-19
2020/12/18 01:54:39;;;;;;;6.75;4.43;;;;;;;;;;5113691;28;20020;-19
2020/12/18 01:57:05;;;;;;;5.47;4.13;;;;;;;;;;5112372;28;20115;-18
2020/12/18 01:59:40;;;;;;;6.88;3.03;;;;;;;;;;5112373;28;20020;-19
2020/12/18 02:02:19;;;;;;;5.28;3.88;;;;;;;;;;5112369;28;20031;-19
2020/12/18 02:04:55;;;;;;;6.70;3.65;;;;;;;;;;5112241;28;20035;-18
2020/12/18 02:07:22;;;;;;;6.68;4.97;;;;;;;;;;5112211;28;20035;-19
2020/12/18 02:10:20;;;;;;;9.40;4.68;;;;;;;;;;5113440;28;20027;-19
2020/12/18 02:12:46;;;;;;;8.52;5.03;;;;;;;;;;5095285;28;20080;-20
2020/12/18 02:15:12;;;;;;;7.85;4.32;;;;;;;;;;5112060;28;20149;-19
2020/12/18 02:17:56;;;;;;;6.30;3.97;;;;;;;;;;5113613;28;20058;-19
2020/12/18 02:20:25;;;;;;;8.23;5.00;;;;;;;;;;5112020;28;20020;-18
2020/12/18 02:22:53;;;;;;;6.45;5.15;;;;;;;;;;5111918;28;20019;-19
2020/12/18 02:25:29;;;;;;;5.95;3.60;;;;;;;;;;5096108;28;20040;-18
2020/12/18 02:27:54;;;;;;;6.28;4.22;;;;;;;;;;5113217;28;20090;-18
2020/12/18 02:30:21;;;;;;;6.22;4.30;;;;;;;;;;5111850;28;20035;-21
2020/12/18 02:33:22;;;;;;;6.82;4.22;;;;;;;;;;5090456;28;20043;-20
2020/12/18 02:35:58;;;;;;;10.13;4.38;;;;;;;;;;5105912;28;20039;-19
2020/12/18 02:38:24;;;;;;;5.70;4.32;;;;;;;;;;5113411;28;20024;-19
2020/12/18 02:40:49;;;;;;;7.53;4.25;;;;;;;;;;5111698;28;20382;-19
2020/12/18 02:43:41;;;;;;;5.78;4.07;;;;;;;;;;5112907;28;20027;-19
2020/12/18 02:46:09;;;;;;;7.55;4.60;;;;;;;;;;5111444;28;20130;-19
2020/12/18 02:48:39;;;;;;;5.28;3.42;;;;;;;;;;5095260;28;20103;-19
2020/12/18 02:51:40;;;;;;;5.85;3.95;;;;;;;;;;5101254;28;20046;-19
2020/12/18 02:54:24;;;;;;;7.03;3.95;;;;;;;;;;5113274;28;20039;-18
2020/12/18 02:56:57;;;;;;;7.82;4.32;;;;;;;;;;5110995;28;20442;-19
2020/12/18 02:59:40;;;;;;;9.07;3.20;;;;;;;;;;5111557;28;20034;-19
2020/12/18 03:02:06;;;;;;;7.80;3.40;;;;;;;;;;5111375;28;20024;-20
2020/12/18 03:04:31;;;;;;;6.38;3.75;;;;;;;;;;5111540;28;20031;-19
2020/12/18 03:07:18;;;;;;;4.68;2.97;;;;;;;;;;5111369;28;20044;-18
2020/12/18 03:09:44;;;;;;;5.47;3.83;;;;;;;;;;5112657;28;20470;-18
2020/12/18 03:12:10;;;;;;;5.00;3.03;;;;;;;;;;5111269;28;20034;-19
2020/12/18 03:14:35;;;;;;;5.07;3.03;;;;;;;;;;5094506;28;20031;-18
2020/12/18 03:17:12;;;;;;;5.57;3.72;;;;;;;;;;5111293;28;20024;-19
2020/12/18 03:19:50;;;;;;;4.25;3.00;;;;;;;;;;5111241;28;20026;-19
2020/12/18 03:22:23;;;;;;;8.65;3.95;;;;;;;;;;5111349;28;20031;-20
2020/12/18 03:25:14;;;;;;;6.13;3.45;;;;;;;;;;5111138;28;20451;-19
2020/12/18 03:27:50;;;;;;;7.35;2.97;;;;;;;;;;5111279;28;20031;-20
2020/12/18 03:30:15;;;;;;;4.28;2.97;;;;;;;;;;5111156;28;20023;-18
2020/12/18 03:32:43;;;;;;;6.05;3.83;;;;;;;;;;5111134;28;20110;-18
2020/12/18 03:35:20;;;;;;;5.95;4.03;;;;;;;;;;5111191;28;20035;-19
2020/12/18 03:37:45;;;;;;;10.63;3.72;;;;;;;;;;5111127;28;20027;-19
2020/12/18 03:40:16;;;;;;;4.45;2.80;;;;;;;;;;5110782;28;20061;-20
2020/12/18 03:42:47;;;;;;;4.47;2.97;;;;;;;;;;5111210;28;20393;-19
2020/12/18 03:45:14;;;;;;;3.17;2.75;;;;;;;;;;5110943;28;20474;-18
2020/12/18 03:47:51;;;;;;;5.43;3.83;;;;;;;;;;5111103;28;20056;-20
2020/12/18 03:50:24;;;;;;;3.58;2.78;;;;;;;;;;5110869;28;20486;-18
2020/12/18 03:52:54;;;;;;;4.85;3.47;;;;;;;;;;5111045;28;20535;-19
2020/12/18 03:55:19;;;;;;;5.43;2.97;;;;;;;;;;5110917;28;20027;-18
2020/12/18 03:58:03;;;;;;;4.70;2.83;;;;;;;;;;5112564;28;20047;-20
2020/12/18 04:00:45;;;;;;;4.88;2.97;;;;;;;;;;5110920;28;20518;-19
2020/12/18 04:03:11;;;;;;;4.03;2.95;;;;;;;;;;5110871;28;20027;-19
2020/12/18 04:05:37;;;;;;;4.68;3.30;;;;;;;;;;5110824;28;20420;-19
2020/12/18 04:08:06;;;;;;;8.30;3.33;;;;;;;;;;5096044;28;20027;-18
2020/12/18 04:10:52;;;;;;;5.85;3.67;;;;;;;;;;5104795;28;20043;-19
2020/12/18 04:13:40;;;;;;;8.45;4.32;;;;;;;;;;5115637;28;20057;-19
2020/12/18 04:16:06;;;;;;;5.28;3.63;;;;;;;;;;5114327;28;20110;-18
2020/12/18 04:18:32;;;;;;;5.05;3.05;;;;;;;;;;5116054;28;20064;-19
2020/12/18 04:21:01;;;;;;;5.82;3.92;;;;;;;;;;5114266;28;20028;-18
2020/12/18 04:23:38;;;;;;;5.78;3.75;;;;;;;;;;5114341;28;20024;-18
2020/12/18 04:26:13;;;;;;;4.97;3.38;;;;;;;;;;5114125;28;20036;-21
2020/12/18 04:28:41;;;;;;;6.22;3.65;;;;;;;;;;5097573;28;20493;-21
2020/12/18 04:31:08;;;;;;;5.15;3.50;;;;;;;;;;5114019;28;20030;-20
2020/12/18 04:33:35;;;;;;;5.65;3.75;;;;;;;;;;5114128;28;20024;-19
2020/12/18 04:36:01;;;;;;;4.32;3.10;;;;;;;;;;5097121;28;20152;-19
2020/12/18 04:38:30;;;;;;;4.65;3.67;;;;;;;;;;5114050;28;20474;-19
2020/12/18 04:41:04;;;;;;;4.85;3.55;;;;;;;;;;5113892;28;20031;-18
2020/12/18 04:43:39;;;;;;;4.22;3.10;;;;;;;;;;5098234;28;20474;-19
2020/12/18 04:46:15;;;;;;;5.45;3.40;;;;;;;;;;5113692;28;20040;-19
2020/12/18 04:48:42;;;;;;;4.40;3.40;;;;;;;;;;5113761;28;20085;-20
2020/12/18 04:51:16;;;;;;;5.20;3.60;;;;;;;;;;5113561;28;20121;-20
2020/12/18 04:53:50;;;;;;;3.13;2.25;;;;;;;;;;5113763;28;20599;-17
2020/12/18 04:56:26;;;;;;;9.60;3.38;;;;;;;;;;5113733;28;20031;-19
2020/12/18 04:58:57;;;;;;;6.20;3.10;;;;;;;;;;5114835;28;20023;-18
2020/12/18 05:01:37;;;;;;;5.20;3.17;;;;;;;;;;5113602;28;20393;-19
2020/12/18 05:04:07;;;;;;;5.85;2.50;;;;;;;;;;5113529;28;20091;-18
2020/12/18 05:06:37;;;;;;;6.20;3.70;;;;;;;;;;5113409;28;20043;-18
2020/12/18 05:09:02;;;;;;;5.57;3.90;;;;;;;;;;5113328;28;20028;-19
2020/12/18 05:11:28;;;;;;;5.93;3.38;;;;;;;;;;5113348;28;20024;-26
2020/12/18 05:14:05;;;;;;;6.80;3.10;;;;;;;;;;5113246;28;20036;-18
2020/12/18 05:16:40;;;;;;;3.67;2.88;;;;;;;;;;5113304;28;20024;-18
2020/12/18 05:19:24;;;;;;;3.53;2.72;;;;;;;;;;5112694;28;20032;-20
2020/12/18 05:22:22;;;;;;;6.70;3.03;;;;;;;;;;5090923;28;20104;-19
2020/12/18 05:25:09;;;;;;;4.30;3.03;;;;;;;;;;5106589;28;20110;-20
2020/12/18 05:27:42;;;;;;;4.25;3.00;;;;;;;;;;5096751;28;20046;-19
2020/12/18 05:30:09;;;;;;;5.53;3.85;;;;;;;;;;5112867;28;20119;-19
2020/12/18 05:32:35;;;;;;;8.55;3.33;;;;;;;;;;5114617;28;20114;-20
2020/12/18 05:35:06;;;;;;;4.93;3.40;;;;;;;;;;5112755;28;20079;-18
2020/12/18 05:37:45;;;;;;;3.80;3.00;;;;;;;;;;5112952;28;20032;-19
2020/12/18 05:40:29;;;;;;;5.70;2.97;;;;;;;;;;5114131;28;20504;-19
2020/12/18 05:43:14;;;;;;;4.20;2.92;;;;;;;;;;5114303;28;20035;-19
2020/12/18 05:45:43;;;;;;;4.85;3.00;;;;;;;;;;5112706;28;20086;-19
2020/12/18 05:48:27;;;;;;;4.80;3.58;;;;;;;;;;5113894;28;20081;-20
2020/12/18 05:51:27;;;;;;;4.53;3.15;;;;;;;;;;5113234;28;20138;-19
2020/12/18 05:54:13;;;;;;;4.85;3.10;;;;;;;;;;5112968;28;20042;-18
2020/12/18 05:56:50;;;;;;;4.88;3.13;;;;;;;;;;5112504;28;20030;-18
2020/12/18 05:59:20;;;;;;;3.85;3.08;;;;;;;;;;5112370;28;20077;-19
2020/12/18 06:01:54;;;;;;;5.10;3.15;;;;;;;;;;5112573;28;20443;-19
2020/12/18 06:04:38;;;;;;;3.50;2.80;;;;;;;;;;5113988;28;20097;-19
2020/12/18 06:07:15;;;;;;;4.55;3.00;;;;;;;;;;5096979;28;20092;-19
2020/12/18 06:10:05;;;;;;;4.57;2.83;;;;;;;;;;5113628;28;20424;-20
2020/12/18 06:13:03;;;;;;;5.43;3.13;;;;;;;;;;5112149;28;20040;-17
2020/12/18 06:15:45;;;;;;;5.90;3.03;;;;;;;;;;5113521;28;20478;-19
2020/12/18 06:18:15;;;;;;;4.38;3.30;;;;;;;;;;5112003;28;20047;-19
2020/12/18 06:20:43;;;;;;;4.88;3.20;;;;;;;;;;5112089;28;20023;-19
2020/12/18 06:23:09;;;;;;;6.50;3.08;;;;;;;;;;5111747;28;20027;-18
2020/12/18 06:25:58;;;;;;;5.78;3.63;;;;;;;;;;5104796;28;20028;-18
2020/12/18 06:29:04;;;;;;;5.30;3.10;;;;;;;;;;5090439;28;20040;-19
2020/12/18 06:31:36;;;;;;;7.32;3.45;;;;;;;;;;5072764;28;20046;-19
2020/12/18 06:34:29;;;;;;;6.47;2.80;;;;;;;;;;5106072;28;20390;-18
2020/12/18 06:37:30;;;;;;;3.65;2.75;;;;;;;;;;5111731;28;20080;-19
2020/12/18 06:40:26;;;;;;;3.72;3.13;;;;;;;;;;5112913;28;20036;-19
2020/12/18 06:43:32;;;;;;;6.40;2.95;;;;;;;;;;5104627;28;20043;-18
2020/12/18 06:46:10;;;;;;;5.00;3.40;;;;;;;;;;5111510;28;20637;-18
2020/12/18 06:49:11;;;;;;;4.45;3.22;;;;;;;;;;5069834;28;20033;-18
2020/12/18 06:52:35;;;;;;;4.38;3.50;;;;;;;;;;5090086;28;20063;-19
2020/12/18 06:55:01;;;;;;;5.18;3.20;;;;;;;;;;5072838;28;20072;-18
2020/12/18 06:58:09;;;;;;;3.70;3.22;;;;;;;;;;5106979;28;20514;-21
2020/12/18 07:00:42;;;;;;;4.13;3.13;;;;;;;;;;5112892;28;20028;-19
2020/12/18 07:03:09;;;;;;;5.28;3.38;;;;;;;;;;5112729;28;20057;-19
2020/12/18 07:05:37;;;;;;;4.05;3.35;;;;;;;;;;5112709;28;20023;-18
2020/12/18 07:08:07;;;;;;;5.95;3.00;;;;;;;;;;5112619;28;20027;-18
2020/12/18 07:10:37;;;;;;;7.93;3.88;;;;;;;;;;5113007;28;20023;-19
2020/12/18 07:13:04;;;;;;;5.47;3.78;;;;;;;;;;5112883;28;20036;-20
2020/12/18 07:15:45;;;;;;;4.35;3.25;;;;;;;;;;5094291;28;20067;-18
2020/12/18 07:18:14;;;;;;;5.45;3.00;;;;;;;;;;5112549;28;20038;-18
2020/12/18 07:20:53;;;;;;;5.13;3.67;;;;;;;;;;5112633;28;20020;-18
2020/12/18 07:23:19;;;;;;;3.60;2.90;;;;;;;;;;5112598;28;20482;-18
2020/12/18 07:25:45;;;;;;;5.45;3.85;;;;;;;;;;5112554;28;20065;-19
2020/12/18 07:28:11;;;;;;;4.15;2.90;;;;;;;;;;5112422;28;20039;-19
2020/12/18 07:30:44;;;;;;;5.13;3.08;;;;;;;;;;5112550;28;20450;-19
2020/12/18 07:33:10;;;;;;;4.05;2.83;;;;;;;;;;5112545;28;20478;-20
2020/12/18 07:35:41;;;;;;;5.35;2.97;;;;;;;;;;5112410;28;20470;-19
2020/12/18 07:38:14;;;;;;;4.13;3.15;;;;;;;;;;5112619;28;20035;-19
2020/12/18 07:40:40;;;;;;;4.40;2.63;;;;;;;;;;5112197;28;20059;-19
2020/12/18 07:43:06;;;;;;;5.93;3.03;;;;;;;;;;5115847;28;20484;-19
2020/12/18 07:45:36;;;;;;;4.53;3.30;;;;;;;;;;5116052;28;20035;-19
2020/12/18 07:48:01;;;;;;;4.35;2.83;;;;;;;;;;5116619;28;20050;-19
2020/12/18 07:50:27;;;;;;;5.80;3.40;;;;;;;;;;5114779;28;20085;-18
2020/12/18 07:52:52;;;;;;;4.60;3.53;;;;;;;;;;5116316;28;20028;-19
2020/12/18 07:55:18;;;;;;;4.97;2.92;;;;;;;;;;5116157;28;20492;-18
2020/12/18 07:57:45;;;;;;;3.13;2.50;;;;;;;;;;5116490;28;20102;-20
2020/12/18 08:00:10;;;;;;;5.03;3.65;;;;;;;;;;5116027;28;20108;-19
2020/12/18 08:02:39;;;;;;;5.82;3.50;;;;;;;;;;5115989;28;20030;-20
2020/12/18 08:05:05;;;;;;;3.53;3.10;;;;;;;;;;5116006;28;20015;-19
2020/12/18 08:07:31;;;;;;;4.28;3.28;;;;;;;;;;5114646;28;20428;-18
2020/12/18 08:09:58;;;;;;;4.65;2.78;;;;;;;;;;5116100;28;20077;-19
2020/12/18 08:12:24;;;;;;;4.72;2.70;;;;;;;;;;5114602;28;20080;-18
2020/12/18 08:14:49;;;;;;;4.57;3.03;;;;;;;;;;5116081;28;20035;-18
2020/12/18 08:17:23;;;;;;;5.47;3.67;;;;;;;;;;5115658;28;20049;-18
2020/12/18 08:19:50;;;;;;;4.80;3.75;;;;;;;;;;5115351;28;20132;-19
2020/12/18 08:22:16;;;;;;;4.47;3.30;;;;;;;;;;5115468;28;20071;-18
2020/12/18 08:24:42;;;;;;;4.72;2.70;;;;;;;;;;5114229;28;20473;-20
2020/12/18 08:27:22;;;;;;;8.75;3.10;;;;;;;;;;5114137;28;20034;-18
2020/12/18 08:29:48;;;;;;;5.22;3.72;;;;;;;;;;5115786;28;20058;-20
2020/12/18 08:32:18;;;;;;;3.55;3.03;;;;;;;;;;5115358;28;20534;-19
2020/12/18 08:34:44;;;;;;;4.05;2.90;;;;;;;;;;5115728;28;20031;-19
2020/12/18 08:37:09;;;;;;;4.82;3.05;;;;;;;;;;5115625;28;20028;-19
2020/12/18 08:39:35;;;;;;;3.60;2.63;;;;;;;;;;5115021;28;20103;-20
2020/12/18 08:42:02;;;;;;;6.47;3.00;;;;;;;;;;5114474;28;20036;-20
2020/12/18 08:44:29;;;;;;;4.63;2.90;;;;;;;;;;5115249;28;20024;-19
2020/12/18 08:46:55;;;;;;;5.00;3.08;;;;;;;;;;5115176;28;20020;-18
2020/12/18 08:49:22;;;;;;;7.93;3.30;;;;;;;;;;5114937;28;20473;-19
2020/12/18 08:51:49;;;;;;;3.83;2.67;;;;;;;;;;5113893;28;20114;-20
2020/12/18 08:54:31;;;;;;;4.03;3.10;;;;;;;;;;5114149;28;20031;-19
2020/12/18 08:57:17;;;;;;;4.53;3.00;;;;;;;;;;5115099;28;20043;-19
2020/12/18 09:00:01;;;;;;;6.43;3.03;;;;;;;;;;5113640;28;20891;-18
2020/12/18 09:02:28;;;;;;;4.30;3.00;;;;;;;;;;5113572;28;20055;-19
2020/12/18 09:05:13;;;;;;;5.30;3.13;;;;;;;;;;5114880;28;20089;-20
2020/12/18 09:08:02;;;;;;;3.95;2.78;;;;;;;;;;5114794;28;20051;-19
2020/12/18 09:10:27;;;;;;;3.97;2.25;;;;;;;;;;5103991;28;20114;-19
2020/12/18 09:12:53;;;;;;;5.40;3.70;;;;;;;;;;5114780;28;20020;-20
2020/12/18 09:15:31;;;;;;;3.70;2.35;;;;;;;;;;5114525;28;20035;-19
2020/12/18 09:18:06;;;;;;;3.80;3.00;;;;;;;;;;5114861;28;20081;-18
2020/12/18 09:20:42;;;;;;;3.55;2.63;;;;;;;;;;5114610;28;20061;-19
2020/12/18 09:23:11;;;;;;;4.68;3.10;;;;;;;;;;5114607;28;20035;-20
2020/12/18 09:25:38;;;;;;;3.83;2.38;;;;;;;;;;5114384;28;20038;-19
2020/12/18 09:28:04;;;;;;;4.13;3.00;;;;;;;;;;5114237;28;20039;-20
2020/12/18 09:30:31;;;;;;;5.07;2.95;;;;;;;;;;5114440;28;20016;-19
2020/12/18 09:33:13;;;;;;;4.28;2.80;;;;;;;;;;5114308;28;20092;-18
2020/12/18 09:35:39;;;;;;;5.05;2.67;;;;;;;;;;5114451;28;20027;-18
2020/12/18 09:38:05;;;;;;;3.95;3.13;;;;;;;;;;5114105;28;20011;-19
2020/12/18 09:40:31;;;;;;;3.78;2.90;;;;;;;;;;5114131;28;20426;-19
2020/12/18 09:42:56;;;;;;;2.88;2.30;;;;;;;;;;5114139;28;20020;-18
2020/12/18 09:45:22;;;;;;;5.45;2.45;;;;;;;;;;5112617;28;20027;-19
2020/12/18 09:47:47;;;;;;;5.47;3.35;;;;;;;;;;5113997;28;20470;-19
2020/12/18 09:50:13;;;;;;;5.53;3.28;;;;;;;;;;5113698;28;20386;-18
2020/12/18 09:52:38;;;;;;;3.83;2.80;;;;;;;;;;5113882;28;20027;-19
2020/12/18 09:55:04;;;;;;;4.13;2.42;;;;;;;;;;5114110;28;20035;-19
2020/12/18 09:57:30;;;;;;;4.35;2.55;;;;;;;;;;5112497;28;20481;-19
2020/12/18 09:59:55;;;;;;;3.03;2.20;;;;;;;;;;5113774;28;20062;-19
2020/12/18 10:02:21;;;;;;;3.85;2.83;;;;;;;;;;5113649;28;20490;-19
2020/12/18 10:04:46;;;;;;;3.60;3.25;;;;;;;;;;5111804;28;20046;-19
2020/12/18 10:07:12;;;;;;;5.55;2.95;;;;;;;;;;5113429;28;20465;-19
2020/12/18 10:09:37;;;;;;;4.25;3.05;;;;;;;;;;5113531;28;20038;-20
2020/12/18 10:12:03;;;;;;;5.38;3.33;;;;;;;;;;5112169;28;20088;-19
2020/12/18 10:14:28;;;;;;;7.00;2.78;;;;;;;;;;5113543;28;20553;-19
2020/12/18 10:16:54;;;;;;;4.63;2.92;;;;;;;;;;5112150;28;20024;-20
2020/12/18 10:19:19;;;;;;;4.20;2.88;;;;;;;;;;5113290;28;20076;-19
2020/12/18 10:21:45;;;;;;;7.65;3.50;;;;;;;;;;4742390;28;10000614;-19
2020/12/18 10:24:12;;;;;;;5.93;4.22;;;;;;;;;;5089700;28;20040;-19
2020/12/18 10:26:41;;;;;;;6.50;4.28;;;;;;;;;;5089372;28;20019;-20
2020/12/18 10:29:08;;;;;;;5.00;3.72;;;;;;;;;;5089302;28;20472;-21
2020/12/18 10:31:33;;;;;;;4.32;3.40;;;;;;;;;;5089397;28;20099;-22
2020/12/18 10:34:01;;;;;;;6.78;3.58;;;;;;;;;;5090275;28;20088;-21
2020/12/18 10:36:26;;;;;;;4.68;2.65;;;;;;;;;;5109812;28;20102;-19
2020/12/18 10:38:52;;;;;;;3.75;2.53;;;;;;;;;;5109866;28;20473;-19
2020/12/18 10:41:17;;;;;;;4.60;3.00;;;;;;;;;;5109524;28;20027;-19
2020/12/18 10:43:43;;;;;;;4.13;2.35;;;;;;;;;;5108276;28;20027;-19
2020/12/18 10:46:10;;;;;;;4.57;2.13;;;;;;;;;;5109430;28;20099;-21
2020/12/18 10:48:36;;;;;;;4.70;3.05;;;;;;;;;;5108368;28;20031;-20
2020/12/18 10:51:01;;;;;;;5.78;2.72;;;;;;;;;;5108165;28;20047;-20
2020/12/18 10:53:27;;;;;;;4.03;3.20;;;;;;;;;;5109420;28;20028;-20
2020/12/18 10:55:53;;;;;;;5.03;3.50;;;;;;;;;;5109371;28;20118;-18
2020/12/18 10:58:18;;;;;;;5.72;3.15;;;;;;;;;;5109224;28;20119;-19
2020/12/18 11:00:44;;;;;;;4.75;2.97;;;;;;;;;;5109422;28;20160;-18
2020/12/18 11:03:09;;;;;;;2.90;2.33;;;;;;;;;;5109567;28;20077;-19
2020/12/18 11:05:34;;;;;;;4.95;2.83;;;;;;;;;;5109500;28;20024;-17
2020/12/18 11:08:00;;;;;;;4.90;3.10;;;;;;;;;;5109157;28;20085;-19
2020/12/18 11:10:28;;;;;;;4.30;3.13;;;;;;;;;;5109518;28;20023;-19
2020/12/18 11:12:54;;;;;;;7.70;2.80;;;;;;;;;;5109607;28;20042;-21
2020/12/18 11:15:19;;;;;;;4.45;3.05;;;;;;;;;;5109687;28;20023;-21
2020/12/18 11:17:45;;;;;;;3.22;2.33;;;;;;;;;;5112448;28;20092;-19
2020/12/18 11:20:11;;;;;;;3.38;2.83;;;;;;;;;;5113197;28;20024;-19
2020/12/18 11:22:36;;;;;;;3.08;2.08;;;;;;;;;;5113798;28;20042;-19
2020/12/18 11:25:02;;;;;;;3.75;2.72;;;;;;;;;;5112093;28;20440;-21
2020/12/18 11:27:28;;;;;;;5.38;2.65;;;;;;;;;;5113102;28;20126;-20
2020/12/18 11:29:53;;;;;;;2.92;2.38;;;;;;;;;;5113421;28;20124;-19
2020/12/18 11:32:19;;;;;;;2.83;2.17;;;;;;;;;;5113280;28;20039;-19
2020/12/18 11:34:44;;;;;;;2.97;2.38;;;;;;;;;;5113367;28;20714;-20
2020/12/18 11:37:10;;;;;;;4.82;2.85;;;;;;;;;;5113034;28;20115;-22
2020/12/18 11:39:35;;;;;;;5.55;2.95;;;;;;;;;;5111928;28;20102;-19
2020/12/18 11:42:01;;;;;;;4.60;2.25;;;;;;;;;;5113034;28;20560;-19
2020/12/18 11:44:27;;;;;;;3.63;2.42;;;;;;;;;;5112740;28;20099;-19
2020/12/18 11:46:52;;;;;;;3.90;2.10;;;;;;;;;;5112735;28;20138;-20
2020/12/18 11:49:17;;;;;;;4.35;2.47;;;;;;;;;;5111309;28;20019;-19
2020/12/18 11:51:43;;;;;;;4.10;2.50;;;;;;;;;;5111133;28;20027;-20
2020/12/18 11:54:08;;;;;;;3.25;2.13;;;;;;;;;;5113117;28;20496;-19
2020/12/18 11:56:34;;;;;;;5.13;2.80;;;;;;;;;;5112952;28;20066;-21
2020/12/18 11:58:59;;;;;;;3.83;2.63;;;;;;;;;;5111484;28;20016;-22
2020/12/18 12:01:25;;;;;;;5.78;2.72;;;;;;;;;;5111392;28;20569;-19
2020/12/18 12:03:51;;;;;;;4.28;2.50;;;;;;;;;;5112721;28;20114;-20
2020/12/18 12:06:17;;;;;;;4.07;3.00;;;;;;;;;;5112819;28;20039;-20
2020/12/18 12:08:43;;;;;;;4.18;2.85;;;;;;;;;;5111984;28;20012;-19
2020/12/18 12:11:09;;;;;;;3.28;2.80;;;;;;;;;;5112821;28;20028;-20
2020/12/18 12:13:35;;;;;;;4.05;2.70;;;;;;;;;;5112432;28;20087;-18
2020/12/18 12:16:00;;;;;;;5.22;2.97;;;;;;;;;;5112435;28;20123;-19
2020/12/18 12:18:26;;;;;;;4.15;2.90;;;;;;;;;;5111235;28;20035;-26
2020/12/18 12:20:51;;;;;;;3.83;2.83;;;;;;;;;;5112044;28;20031;-19
2020/12/18 12:23:17;;;;;;;3.75;2.35;;;;;;;;;;5110474;28;20016;-18
2020/12/18 12:25:42;;;;;;;3.00;2.42;;;;;;;;;;5111567;28;20369;-18
2020/12/18 12:28:08;;;;;;;2.33;1.95;;;;;;;;;;5110326;28;20027;-18
2020/12/18 12:30:33;;;;;;;3.53;2.17;;;;;;;;;;5111867;28;20474;-20
2020/12/18 12:32:59;;;;;;;6.70;2.95;;;;;;;;;;5111399;28;20015;-22
2020/12/18 12:35:25;;;;;;;3.58;2.92;;;;;;;;;;5105825;28;20039;-20
2020/12/18 12:37:50;;;;;;;3.08;2.55;;;;;;;;;;5091235;28;20020;-20
2020/12/18 12:40:16;;;;;;;3.95;2.63;;;;;;;;;;5091031;28;20024;-19
2020/12/18 12:42:42;;;;;;;4.70;2.85;;;;;;;;;;5091352;28;20032;-19
2020/12/18 12:45:07;;;;;;;4.70;2.70;;;;;;;;;;5091125;28;20478;-19
2020/12/18 12:47:32;;;;;;;4.20;2.70;;;;;;;;;;5091159;28;20028;-20
2020/12/18 12:49:58;;;;;;;4.85;2.95;;;;;;;;;;5091109;28;20487;-19
2020/12/18 12:52:23;;;;;;;5.35;2.00;;;;;;;;;;5091163;28;20685;-21
2020/12/18 12:54:49;;;;;;;3.65;2.42;;;;;;;;;;5106738;28;20104;-21
2020/12/18 12:57:14;;;;;;;3.92;2.88;;;;;;;;;;5110802;28;20145;-22
2020/12/18 12:59:39;;;;;;;3.50;1.63;;;;;;;;;;5111680;28;20023;-20
2020/12/18 13:02:08;;;;;;;3.65;2.28;;;;;;;;;;5109945;28;20019;-20
2020/12/18 13:04:34;;;;;;;3.75;2.75;;;;;;;;;;5111167;28;20496;-22
2020/12/18 13:06:59;;;;;;;3.03;2.40;;;;;;;;;;5109821;28;20031;-23
2020/12/18 13:09:25;;;;;;;3.20;2.17;;;;;;;;;;5110535;28;20111;-22
2020/12/18 13:11:51;;;;;;;3.90;2.28;;;;;;;;;;5109740;28;20034;-21
2020/12/18 13:14:16;;;;;;;3.20;2.00;;;;;;;;;;5110912;28;20020;-19
2020/12/18 13:16:42;;;;;;;4.05;2.15;;;;;;;;;;5102096;28;20023;-19
2020/12/18 13:19:07;;;;;;;3.08;1.88;;;;;;;;;;5090547;28;20020;-20
2020/12/18 13:21:33;;;;;;;4.35;2.08;;;;;;;;;;5094419;28;20020;-19
2020/12/18 13:23:59;;;;;;;3.35;1.98;;;;;;;;;;5102674;28;20462;-19
2020/12/18 13:26:25;;;;;;;3.10;2.00;;;;;;;;;;5110606;28;20076;-19
2020/12/18 13:28:50;;;;;;;2.72;2.05;;;;;;;;;;5111094;28;20043;-18
2020/12/18 13:31:17;;;;;;;3.40;2.17;;;;;;;;;;5111145;28;20117;-20
2020/12/18 13:33:42;;;;;;;3.50;2.45;;;;;;;;;;5110310;28;20032;-19
2020/12/18 13:36:07;;;;;;;8.27;7.57;;;;;;;;;;5110235;28;20020;-20
2020/12/18 13:38:33;;;;;;;3.78;3.30;;;;;;;;;;5109308;28;20034;-20
2020/12/18 13:40:59;;;;;;;5.28;3.22;;;;;;;;;;5108532;28;20416;-18
2020/12/18 13:43:24;;;;;;;4.50;2.72;;;;;;;;;;5092470;28;20039;-19
2020/12/18 13:45:50;;;;;;;4.90;2.38;;;;;;;;;;5110285;28;20489;-18
2020/12/18 13:48:15;;;;;;;4.30;2.58;;;;;;;;;;5110859;28;20042;-19
2020/12/18 13:50:41;;;;;;;5.10;2.75;;;;;;;;;;5110460;28;20159;-18
2020/12/18 13:53:06;;;;;;;3.80;2.75;;;;;;;;;;5110429;28;20097;-22
2020/12/18 13:55:32;;;;;;;6.07;2.95;;;;;;;;;;5109076;28;20114;-22
2020/12/18 13:57:58;;;;;;;4.50;2.70;;;;;;;;;;5110045;28;20811;-19
2020/12/18 14:00:24;;;;;;;6.22;2.78;;;;;;;;;;5110596;28;20466;-19
2020/12/18 14:02:50;;;;;;;6.28;3.28;;;;;;;;;;5110576;28;20031;-20
2020/12/18 14:05:15;;;;;;;5.47;2.75;;;;;;;;;;5110287;28;20485;-19
2020/12/18 14:07:41;;;;;;;3.17;2.22;;;;;;;;;;5110418;28;20032;-19
2020/12/18 14:10:07;;;;;;;3.38;2.72;;;;;;;;;;5108873;28;20729;-19
2020/12/18 14:12:32;;;;;;;3.92;2.80;;;;;;;;;;5110369;28;20035;-19
2020/12/18 14:14:58;;;;;;;4.45;2.70;;;;;;;;;;5110366;28;20027;-20
2020/12/18 14:17:23;;;;;;;4.30;2.70;;;;;;;;;;5110218;28;20072;-20
2020/12/18 14:19:49;;;;;;;8.10;2.75;;;;;;;;;;5108467;28;20023;-28
2020/12/18 14:22:14;;;;;;;5.25;3.05;;;;;;;;;;5073252;28;20113;-20
2020/12/18 14:24:40;;;;;;;5.22;3.10;;;;;;;;;;5089381;28;20092;-20
2020/12/18 14:27:05;;;;;;;3.58;2.58;;;;;;;;;;5089318;28;20511;-19
2020/12/18 14:29:31;;;;;;;4.70;3.15;;;;;;;;;;5087628;28;20564;-20
2020/12/18 14:31:57;;;;;;;4.45;3.33;;;;;;;;;;5089590;28;20024;-19
2020/12/18 14:34:22;;;;;;;4.07;2.95;;;;;;;;;;5088732;28;20136;-18
2020/12/18 14:36:48;;;;;;;6.80;3.35;;;;;;;;;;5089529;28;20024;-18
2020/12/18 14:39:13;;;;;;;10.07;3.28;;;;;;;;;;5089511;28;20636;-19
2020/12/18 14:41:39;;;;;;;5.25;3.75;;;;;;;;;;5089210;28;20486;-19
2020/12/18 14:44:05;;;;;;;3.45;2.60;;;;;;;;;;5089271;28;20023;-17
2020/12/18 14:46:31;;;;;;;5.55;3.70;;;;;;;;;;5088663;28;20561;-18
2020/12/18 14:48:56;;;;;;;5.25;2.80;;;;;;;;;;5089212;28;20024;-21
2020/12/18 14:51:24;;;;;;;6.50;2.88;;;;;;;;;;5088516;28;20086;-20
2020/12/18 14:53:50;;;;;;;4.60;2.95;;;;;;;;;;5089330;28;20063;-19
2020/12/18 14:56:15;;;;;;;4.78;3.20;;;;;;;;;;5088786;28;20070;-20
2020/12/18 14:58:40;;;;;;;4.05;2.70;;;;;;;;;;5088022;28;20055;-19
2020/12/18 15:01:06;;;;;;;3.72;2.80;;;;;;;;;;5089436;28;20035;-20